Kentwood, Louisiana
Current Conditions -  °F | °C
As of 12:53 PM on Saturday 25 Oct 2014 (Local Time) from KMCB Reporting Station
Clear Clear  
Wind Chill: 76°   Ceiling: Unl
Heat Index: 76°   Visibility: 10mi
Dew Point: 54°   Wind: 9mph
Humidity: 46%   Direction: 360°N
Pressure: 30.14"   Gusts: NA
Location:  30.94°N, 90.51°W
Report Text: KMCB 251753Z AUTO 36008KT 10SM CLR 24/12 A3014 RMK AO2 SLP202 T02440122 10250 20089 58013
Loading
Personal Weather Stations






























Interactive Weather Map
Tropical Storm Tracking
New forecast layout! Learn more

10-Day Weather Forecast

Advertisements
Track Severe Weather on mobile